Renova, Mississippi
Current Conditions -  °F | °C
As of 3:35 AM on Thursday 23 Oct 2014 (Local Time) from KRNV Reporting Station
Clear Clear  
Wind Chill: 46°   Ceiling: Unl
Heat Index: 46°   Visibility: 10mi
Dew Point: 45°   Wind: 3mph
Humidity: 97%   Direction: 10°N
Pressure: 30.15"   Gusts: NA
Location:  33.7903°N, 90.8559°W
Report Text: KRNV 230835Z AUTO 01003KT 10SM CLR 08/07 A3015 RMK AO2 T00780074
Loading
Personal Weather Stations






























Interactive Weather Map
Tropical Storm Tracking
New forecast layout! Learn more

10-Day Weather Forecast

Advertisements
Track Severe Weather on mobile